sensor_id;sensor_type;location;lat;lon;timestamp;pressure;altitude;pressure_sealevel;temperature;humidity
27429;BME280;14881;48.092;11.574;2022-11-20T00:01:19;94873.72;;;5.14;100.00
27429;BME280;14881;48.092;11.574;2022-11-20T00:03:47;94870.22;;;5.18;100.00
27429;BME280;14881;48.092;11.574;2022-11-20T00:06:18;94872.63;;;5.15;100.00
27429;BME280;14881;48.092;11.574;2022-11-20T00:08:47;94872.59;;;5.25;100.00
27429;BME280;14881;48.092;11.574;2022-11-20T00:11:18;94859.41;;;5.29;100.00
27429;BME280;14881;48.092;11.574;2022-11-20T00:13:47;94871.25;;;5.33;100.00
27429;BME280;14881;48.092;11.574;2022-11-20T00:16:17;94870.72;;;5.36;100.00
27429;BME280;14881;48.092;11.574;2022-11-20T00:18:45;94876.63;;;5.38;100.00
27429;BME280;14881;48.092;11.574;2022-11-20T00:21:15;94871.00;;;5.34;100.00
27429;BME280;14881;48.092;11.574;2022-11-20T00:23:43;94875.28;;;5.40;100.00
27429;BME280;14881;48.092;11.574;2022-11-20T00:26:14;94879.31;;;5.43;100.00
27429;BME280;14881;48.092;11.574;2022-11-20T00:28:44;94878.78;;;5.41;100.00
27429;BME280;14881;48.092;11.574;2022-11-20T00:31:13;94883.34;;;5.40;100.00
27429;BME280;14881;48.092;11.574;2022-11-20T00:33:42;94879.84;;;5.40;100.00
27429;BME280;14881;48.092;11.574;2022-11-20T00:36:12;94875.00;;;5.42;100.00
27429;BME280;14881;48.092;11.574;2022-11-20T00:38:40;94885.81;;;5.37;100.00
27429;BME280;14881;48.092;11.574;2022-11-20T00:41:09;94879.03;;;5.39;100.00
27429;BME280;14881;48.092;11.574;2022-11-20T00:43:38;94889.00;;;5.39;100.00
27429;BME280;14881;48.092;11.574;2022-11-20T00:46:09;94891.44;;;5.40;100.00
27429;BME280;14881;48.092;11.574;2022-11-20T00:48:37;94888.22;;;5.33;100.00
27429;BME280;14881;48.092;11.574;2022-11-20T00:51:05;94891.69;;;5.39;100.00
27429;BME280;14881;48.092;11.574;2022-11-20T00:53:33;94887.41;;;5.33;100.00
27429;BME280;14881;48.092;11.574;2022-11-20T00:56:01;94896.56;;;5.37;100.00
27429;BME280;14881;48.092;11.574;2022-11-20T00:58:31;94896.81;;;5.40;100.00
27429;BME280;14881;48.092;11.574;2022-11-20T01:01:00;94904.09;;;5.40;100.00
27429;BME280;14881;48.092;11.574;2022-11-20T01:03:32;94904.09;;;5.40;100.00
27429;BME280;14881;48.092;11.574;2022-11-20T01:06:00;94905.97;;;5.39;100.00
27429;BME280;14881;48.092;11.574;2022-11-20T01:08:30;94900.59;;;5.39;100.00
27429;BME280;14881;48.092;11.574;2022-11-20T01:10:59;94907.34;;;5.37;100.00
27429;BME280;14881;48.092;11.574;2022-11-20T01:13:28;94905.72;;;5.36;100.00
27429;BME280;14881;48.092;11.574;2022-11-20T01:16:07;94911.13;;;5.36;100.00
27429;BME280;14881;48.092;11.574;2022-11-20T01:18:38;94913.28;;;5.34;100.00
27429;BME280;14881;48.092;11.574;2022-11-20T01:21:07;94913.50;;;5.37;100.00
27429;BME280;14881;48.092;11.574;2022-11-20T01:23:38;94911.94;;;5.36;100.00
27429;BME280;14881;48.092;11.574;2022-11-20T01:26:08;94911.13;;;5.36;100.00
27429;BME280;14881;48.092;11.574;2022-11-20T01:28:38;94916.78;;;5.34;100.00
27429;BME280;14881;48.092;11.574;2022-11-20T01:31:13;94912.19;;;5.30;100.00
27429;BME280;14881;48.092;11.574;2022-11-20T01:33:44;94916.22;;;5.32;100.00
27429;BME280;14881;48.092;11.574;2022-11-20T01:36:13;94914.34;;;5.33;100.00
27429;BME280;14881;48.092;11.574;2022-11-20T01:38:41;94911.13;;;5.31;100.00
27429;BME280;14881;48.092;11.574;2022-11-20T01:41:11;94915.69;;;5.30;100.00
27429;BME280;14881;48.092;11.574;2022-11-20T01:44:00;94911.38;;;5.34;100.00
27429;BME280;14881;48.092;11.574;2022-11-20T01:46:27;94914.09;;;5.34;100.00
27429;BME280;14881;48.092;11.574;2022-11-20T01:49:02;94907.34;;;5.32;100.00
27429;BME280;14881;48.092;11.574;2022-11-20T01:51:34;94917.31;;;5.36;100.00
27429;BME280;14881;48.092;11.574;2022-11-20T01:54:06;94912.47;;;5.33;100.00
27429;BME280;14881;48.092;11.574;2022-11-20T01:56:38;94913.81;;;5.31;100.00
27429;BME280;14881;48.092;11.574;2022-11-20T01:59:08;94915.16;;;5.33;100.00
27429;BME280;14881;48.092;11.574;2022-11-20T02:01:37;94911.66;;;5.33;100.00
27429;BME280;14881;48.092;11.574;2022-11-20T02:04:08;94921.63;;;5.32;100.00
27429;BME280;14881;48.092;11.574;2022-11-20T02:06:39;94914.31;;;5.38;100.00
27429;BME280;14881;48.092;11.574;2022-11-20T02:09:08;94910.31;;;5.30;100.00
27429;BME280;14881;48.092;11.574;2022-11-20T02:11:36;94913.81;;;5.36;100.00
27429;BME280;14881;48.092;11.574;2022-11-20T02:14:03;94909.75;;;5.28;100.00
27429;BME280;14881;48.092;11.574;2022-11-20T02:16:33;94911.66;;;5.28;100.00
27429;BME280;14881;48.092;11.574;2022-11-20T02:19:02;94916.78;;;5.29;100.00
27429;BME280;14881;48.092;11.574;2022-11-20T02:21:36;94917.31;;;5.26;100.00
27429;BME280;14881;48.092;11.574;2022-11-20T02:24:11;94917.56;;;5.24;100.00
27429;BME280;14881;48.092;11.574;2022-11-20T02:26:46;94916.22;;;5.27;100.00
27429;BME280;14881;48.092;11.574;2022-11-20T02:29:16;94918.91;;;5.27;100.00
27429;BME280;14881;48.092;11.574;2022-11-20T02:31:47;94921.88;;;5.25;100.00
27429;BME280;14881;48.092;11.574;2022-11-20T02:34:14;94920.81;;;5.16;100.00
27429;BME280;14881;48.092;11.574;2022-11-20T02:36:42;94916.22;;;5.22;100.00
27429;BME280;14881;48.092;11.574;2022-11-20T02:39:13;94920.56;;;5.18;100.00
27429;BME280;14881;48.092;11.574;2022-11-20T02:41:43;94921.06;;;5.20;100.00
27429;BME280;14881;48.092;11.574;2022-11-20T02:44:11;94913.25;;;5.23;100.00
27429;BME280;14881;48.092;11.574;2022-11-20T02:46:38;94912.22;;;5.19;100.00
27429;BME280;14881;48.092;11.574;2022-11-20T02:49:06;94905.19;;;5.23;100.00
27429;BME280;14881;48.092;11.574;2022-11-20T02:51:34;94908.41;;;5.25;100.00
27429;BME280;14881;48.092;11.574;2022-11-20T02:54:02;94918.13;;;5.27;100.00
27429;BME280;14881;48.092;11.574;2022-11-20T02:56:31;94915.16;;;5.28;100.00
27429;BME280;14881;48.092;11.574;2022-11-20T02:58:59;94913.00;;;5.25;100.00
27429;BME280;14881;48.092;11.574;2022-11-20T03:01:26;94915.16;;;5.28;100.00
27429;BME280;14881;48.092;11.574;2022-11-20T03:03:54;94919.19;;;5.31;100.00
27429;BME280;14881;48.092;11.574;2022-11-20T03:06:22;94913.53;;;5.27;100.00
27429;BME280;14881;48.092;11.574;2022-11-20T03:08:50;94911.38;;;5.29;100.00
27429;BME280;14881;48.092;11.574;2022-11-20T03:11:17;94912.47;;;5.33;100.00
27429;BME280;14881;48.092;11.574;2022-11-20T03:13:46;94913.28;;;5.34;100.00
27429;BME280;14881;48.092;11.574;2022-11-20T03:16:15;94909.22;;;5.26;100.00
27429;BME280;14881;48.092;11.574;2022-11-20T03:18:44;94902.22;;;5.25;100.00
27429;BME280;14881;48.092;11.574;2022-11-20T03:21:12;94904.91;;;5.25;100.00
27429;BME280;14881;48.092;11.574;2022-11-20T03:23:40;94910.03;;;5.27;100.00
27429;BME280;14881;48.092;11.574;2022-11-20T03:26:10;94910.31;;;5.30;100.00
27429;BME280;14881;48.092;11.574;2022-11-20T03:28:38;94897.91;;;5.29;100.00
27429;BME280;14881;48.092;11.574;2022-11-20T03:31:09;94901.41;;;5.24;100.00
27429;BME280;14881;48.092;11.574;2022-11-20T03:33:38;94907.34;;;5.32;100.00
27429;BME280;14881;48.092;11.574;2022-11-20T03:36:09;94896.56;;;5.27;100.00
27429;BME280;14881;48.092;11.574;2022-11-20T03:38:37;94900.34;;;5.25;100.00
27429;BME280;14881;48.092;11.574;2022-11-20T03:41:07;94910.31;;;5.30;100.00
27429;BME280;14881;48.092;11.574;2022-11-20T03:43:36;94906.81;;;5.30;100.00
27429;BME280;14881;48.092;11.574;2022-11-20T03:46:04;94896.84;;;5.30;100.00
27429;BME280;14881;48.092;11.574;2022-11-20T03:48:33;94900.88;;;5.33;100.00
27429;BME280;14881;48.092;11.574;2022-11-20T03:51:09;94902.75;;;5.27;100.00
27429;BME280;14881;48.092;11.574;2022-11-20T03:53:37;94906.81;;;5.30;100.00
27429;BME280;14881;48.092;11.574;2022-11-20T03:56:05;94909.50;;;5.30;100.00
27429;BME280;14881;48.092;11.574;2022-11-20T03:58:34;94902.75;;;5.27;100.00
27429;BME280;14881;48.092;11.574;2022-11-20T04:01:06;94909.22;;;5.31;100.00
27429;BME280;14881;48.092;11.574;2022-11-20T04:03:36;94911.91;;;5.26;100.00
27429;BME280;14881;48.092;11.574;2022-11-20T04:06:06;94914.34;;;5.28;100.00
27429;BME280;14881;48.092;11.574;2022-11-20T04:08:34;94909.75;;;5.23;100.00
27429;BME280;14881;48.092;11.574;2022-11-20T04:11:12;94916.75;;;5.24;100.00
27429;BME280;14881;48.092;11.574;2022-11-20T04:13:40;94916.75;;;5.24;100.00
27429;BME280;14881;48.092;11.574;2022-11-20T04:16:09;94911.91;;;5.21;100.00
27429;BME280;14881;48.092;11.574;2022-11-20T04:18:38;94908.41;;;5.20;100.00
27429;BME280;14881;48.092;11.574;2022-11-20T04:21:07;94911.66;;;5.22;100.00
27429;BME280;14881;48.092;11.574;2022-11-20T04:23:35;94911.38;;;5.24;100.00
27429;BME280;14881;48.092;11.574;2022-11-20T04:26:05;94906.84;;;5.19;100.00
27429;BME280;14881;48.092;11.574;2022-11-20T04:28:33;94908.41;;;5.20;100.00
27429;BME280;14881;48.092;11.574;2022-11-20T04:31:05;94906.84;;;5.19;100.00
27429;BME280;14881;48.092;11.574;2022-11-20T04:33:33;94912.72;;;5.21;100.00
27429;BME280;14881;48.092;11.574;2022-11-20T04:36:04;94905.47;;;5.22;100.00
27429;BME280;14881;48.092;11.574;2022-11-20T04:38:33;94912.72;;;5.21;100.00
27429;BME280;14881;48.092;11.574;2022-11-20T04:41:03;94909.75;;;5.23;100.00
27429;BME280;14881;48.092;11.574;2022-11-20T04:43:31;94906.25;;;5.22;100.00
27429;BME280;14881;48.092;11.574;2022-11-20T04:46:00;94908.69;;;5.24;100.00
27429;BME280;14881;48.092;11.574;2022-11-20T04:48:29;94914.59;;;5.21;100.00
27429;BME280;14881;48.092;11.574;2022-11-20T04:50:57;94915.44;;;5.16;100.00
27429;BME280;14881;48.092;11.574;2022-11-20T04:53:26;94919.47;;;5.19;100.00
27429;BME280;14881;48.092;11.574;2022-11-20T04:55:59;94917.59;;;5.19;100.00
27429;BME280;14881;48.092;11.574;2022-11-20T04:58:27;94913.00;;;5.20;100.00
27429;BME280;14881;48.092;11.574;2022-11-20T05:01:01;94915.41;;;5.21;100.00
27429;BME280;14881;48.092;11.574;2022-11-20T05:03:30;94924.56;;;5.20;100.00
27429;BME280;14881;48.092;11.574;2022-11-20T05:06:00;94919.19;;;5.20;100.00
27429;BME280;14881;48.092;11.574;2022-11-20T05:08:30;94913.25;;;5.23;100.00
27429;BME280;14881;48.092;11.574;2022-11-20T05:11:02;94910.31;;;5.25;100.00
27429;BME280;14881;48.092;11.574;2022-11-20T05:13:30;94903.84;;;5.21;100.00
27429;BME280;14881;48.092;11.574;2022-11-20T05:16:01;94909.22;;;5.21;100.00
27429;BME280;14881;48.092;11.574;2022-11-20T05:18:29;94910.03;;;5.21;100.00
27429;BME280;14881;48.092;11.574;2022-11-20T05:20:57;94914.34;;;5.22;100.00
27429;BME280;14881;48.092;11.574;2022-11-20T05:23:26;94910.84;;;5.27;100.00
27429;BME280;14881;48.092;11.574;2022-11-20T05:25:56;94910.31;;;5.25;100.00
27429;BME280;14881;48.092;11.574;2022-11-20T05:28:25;94910.84;;;5.27;100.00
27429;BME280;14881;48.092;11.574;2022-11-20T05:30:53;94913.81;;;5.25;100.00
27429;BME280;14881;48.092;11.574;2022-11-20T05:33:21;94914.59;;;5.21;100.00
27429;BME280;14881;48.092;11.574;2022-11-20T05:35:49;94912.19;;;5.24;100.00
27429;BME280;14881;48.092;11.574;2022-11-20T05:38:16;94916.75;;;5.24;100.00
27429;BME280;14881;48.092;11.574;2022-11-20T05:40:44;94910.84;;;5.27;100.00
27429;BME280;14881;48.092;11.574;2022-11-20T05:43:13;94914.34;;;5.28;100.00
27429;BME280;14881;48.092;11.574;2022-11-20T05:45:41;94920.81;;;5.27;100.00
27429;BME280;14881;48.092;11.574;2022-11-20T05:48:08;94919.72;;;5.22;100.00
27429;BME280;14881;48.092;11.574;2022-11-20T05:50:36;94922.97;;;5.24;100.00
27429;BME280;14881;48.092;11.574;2022-11-20T05:53:04;94926.19;;;5.21;100.00
27429;BME280;14881;48.092;11.574;2022-11-20T05:55:31;94925.69;;;5.19;100.00
27429;BME280;14881;48.092;11.574;2022-11-20T05:57:59;94917.84;;;5.13;100.00
27429;BME280;14881;48.092;11.574;2022-11-20T06:00:28;94920.56;;;5.13;100.00
27429;BME280;14881;48.092;11.574;2022-11-20T06:02:56;94925.66;;;5.09;100.00
27429;BME280;14881;48.092;11.574;2022-11-20T06:05:24;94928.34;;;5.09;100.00
27429;BME280;14881;48.092;11.574;2022-11-20T06:07:51;94929.44;;;5.13;100.00
27429;BME280;14881;48.092;11.574;2022-11-20T06:10:22;94921.91;;;5.10;100.00
27429;BME280;14881;48.092;11.574;2022-11-20T06:12:50;94928.06;;;5.06;100.00
27429;BME280;14881;48.092;11.574;2022-11-20T06:15:18;94924.59;;;5.00;100.00
27429;BME280;14881;48.092;11.574;2022-11-20T06:17:47;94930.75;;;4.90;100.00
27429;BME280;14881;48.092;11.574;2022-11-20T06:20:19;94924.28;;;4.86;100.00
27429;BME280;14881;48.092;11.574;2022-11-20T06:22:46;94927.00;;;4.81;100.00
27429;BME280;14881;48.092;11.574;2022-11-20T06:25:14;94919.19;;;4.75;100.00
27429;BME280;14881;48.092;11.574;2022-11-20T06:27:42;94922.41;;;4.72;100.00
27429;BME280;14881;48.092;11.574;2022-11-20T06:30:10;94923.75;;;4.64;100.00
27429;BME280;14881;48.092;11.574;2022-11-20T06:32:38;94928.06;;;4.65;100.00
27429;BME280;14881;48.092;11.574;2022-11-20T06:35:08;94928.06;;;4.65;100.00
27429;BME280;14881;48.092;11.574;2022-11-20T06:37:36;94929.94;;;4.65;100.00
27429;BME280;14881;48.092;11.574;2022-11-20T06:40:05;94930.19;;;4.68;100.00
27429;BME280;14881;48.092;11.574;2022-11-20T06:42:33;94939.06;;;4.69;100.00
27429;BME280;14881;48.092;11.574;2022-11-20T06:45:00;94945.53;;;4.73;100.00
27429;BME280;14881;48.092;11.574;2022-11-20T06:47:28;94945.81;;;4.76;100.00
27429;BME280;14881;48.092;11.574;2022-11-20T06:49:56;94943.69;;;4.78;100.00
27429;BME280;14881;48.092;11.574;2022-11-20T06:52:25;94941.53;;;4.80;100.00
27429;BME280;14881;48.092;11.574;2022-11-20T06:54:53;94948.28;;;4.83;100.00
27429;BME280;14881;48.092;11.574;2022-11-20T06:57:20;94956.06;;;4.89;100.00
27429;BME280;14881;48.092;11.574;2022-11-20T06:59:48;94956.59;;;4.92;100.00
27429;BME280;14881;48.092;11.574;2022-11-20T07:02:16;94963.06;;;4.90;100.00
27429;BME280;14881;48.092;11.574;2022-11-20T07:04:43;94956.06;;;4.95;100.00
27429;BME280;14881;48.092;11.574;2022-11-20T07:07:11;94959.31;;;5.02;100.00
27429;BME280;14881;48.092;11.574;2022-11-20T07:09:40;94960.09;;;5.02;100.00
27429;BME280;14881;48.092;11.574;2022-11-20T07:12:08;94963.34;;;5.09;100.00
27429;BME280;14881;48.092;11.574;2022-11-20T07:14:36;94963.88;;;5.11;100.00
27429;BME280;14881;48.092;11.574;2022-11-20T07:17:03;94956.63;;;5.12;100.00
27429;BME280;14881;48.092;11.574;2022-11-20T07:19:31;94970.91;;;5.17;100.00
27429;BME280;14881;48.092;11.574;2022-11-20T07:21:59;94959.03;;;5.23;100.00
27429;BME280;14881;48.092;11.574;2022-11-20T07:24:26;94969.00;;;5.28;100.00
27429;BME280;14881;48.092;11.574;2022-11-20T07:26:55;94965.25;;;5.29;100.00
27429;BME280;14881;48.092;11.574;2022-11-20T07:29:23;94971.16;;;5.31;100.00
27429;BME280;14881;48.092;11.574;2022-11-20T07:31:51;94966.06;;;5.30;100.00
27429;BME280;14881;48.092;11.574;2022-11-20T07:34:18;94971.72;;;5.33;100.00
27429;BME280;14881;48.092;11.574;2022-11-20T07:36:47;94972.50;;;5.39;100.00
27429;BME280;14881;48.092;11.574;2022-11-20T07:39:14;94963.59;;;5.38;100.00
27429;BME280;14881;48.092;11.574;2022-11-20T07:41:42;94964.16;;;5.35;100.00
27429;BME280;14881;48.092;11.574;2022-11-20T07:44:11;94960.66;;;5.40;100.00
27429;BME280;14881;48.092;11.574;2022-11-20T07:46:39;94962.53;;;5.44;100.00
27429;BME280;14881;48.092;11.574;2022-11-20T07:49:06;94967.13;;;5.44;100.00
27429;BME280;14881;48.092;11.574;2022-11-20T07:51:34;94962.53;;;5.44;100.00
27429;BME280;14881;48.092;11.574;2022-11-20T07:54:02;94961.19;;;5.47;100.00
27429;BME280;14881;48.092;11.574;2022-11-20T07:56:29;94958.22;;;5.53;100.00
27429;BME280;14881;48.092;11.574;2022-11-20T07:58:57;94964.69;;;5.52;100.00
27429;BME280;14881;48.092;11.574;2022-11-20T08:01:26;94959.81;;;5.59;100.00
27429;BME280;14881;48.092;11.574;2022-11-20T08:03:54;94964.13;;;5.55;100.00
27429;BME280;14881;48.092;11.574;2022-11-20T08:06:21;94959.28;;;5.57;100.00
27429;BME280;14881;48.092;11.574;2022-11-20T08:08:51;94959.28;;;5.68;100.00
27429;BME280;14881;48.092;11.574;2022-11-20T08:11:18;94957.41;;;5.68;100.00
27429;BME280;14881;48.092;11.574;2022-11-20T08:14:03;94963.84;;;5.72;100.00
27429;BME280;14881;48.092;11.574;2022-11-20T08:16:46;94964.66;;;5.78;100.00
27429;BME280;14881;48.092;11.574;2022-11-20T08:19:16;94968.69;;;5.80;100.00
27429;BME280;14881;48.092;11.574;2022-11-20T08:21:44;94963.28;;;5.85;100.00
27429;BME280;14881;48.092;11.574;2022-11-20T08:24:12;94955.19;;;5.96;100.00
27429;BME280;14881;48.092;11.574;2022-11-20T08:26:40;94960.88;;;5.94;100.00
27429;BME280;14881;48.092;11.574;2022-11-20T08:29:08;94970.56;;;5.95;100.00
27429;BME280;14881;48.092;11.574;2022-11-20T08:31:35;94968.94;;;5.99;100.00
27429;BME280;14881;48.092;11.574;2022-11-20T08:34:05;94971.06;;;6.07;100.00
27429;BME280;14881;48.092;11.574;2022-11-20T08:36:35;94969.44;;;6.11;100.00
27429;BME280;14881;48.092;11.574;2022-11-20T08:39:03;94970.78;;;6.09;100.00
27429;BME280;14881;48.092;11.574;2022-11-20T08:41:32;94976.69;;;6.21;100.00
27429;BME280;14881;48.092;11.574;2022-11-20T08:44:01;94961.84;;;6.23;100.00
27429;BME280;14881;48.092;11.574;2022-11-20T08:46:33;94969.09;;;6.33;100.00
27429;BME280;14881;48.092;11.574;2022-11-20T08:49:02;94968.00;;;6.39;100.00
27429;BME280;14881;48.092;11.574;2022-11-20T08:51:31;94967.16;;;6.44;100.00
27429;BME280;14881;48.092;11.574;2022-11-20T08:53:58;94971.19;;;6.46;100.00
27429;BME280;14881;48.092;11.574;2022-11-20T08:56:26;94963.63;;;6.53;100.00
27429;BME280;14881;48.092;11.574;2022-11-20T08:58:54;94969.81;;;6.54;100.00
27429;BME280;14881;48.092;11.574;2022-11-20T09:01:41;94962.56;;;6.44;100.00
27429;BME280;14881;48.092;11.574;2022-11-20T09:04:09;94973.31;;;6.54;100.00
27429;BME280;14881;48.092;11.574;2022-11-20T09:06:39;94962.81;;;6.53;100.00
27429;BME280;14881;48.092;11.574;2022-11-20T09:09:07;94958.47;;;6.57;100.00
27429;BME280;14881;48.092;11.574;2022-11-20T09:11:35;94962.22;;;6.61;100.00
27429;BME280;14881;48.092;11.574;2022-11-20T09:14:02;94957.09;;;6.59;100.00
27429;BME280;14881;48.092;11.574;2022-11-20T09:16:30;94947.63;;;6.62;100.00
27429;BME280;14881;48.092;11.574;2022-11-20T09:18:58;94960.31;;;6.61;100.00
27429;BME280;14881;48.092;11.574;2022-11-20T09:21:47;94959.50;;;6.66;100.00
27429;BME280;14881;48.092;11.574;2022-11-20T09:24:15;94961.38;;;6.71;100.00
27429;BME280;14881;48.092;11.574;2022-11-20T09:26:43;94956.72;;;6.76;100.00
27429;BME280;14881;48.092;11.574;2022-11-20T09:29:11;94952.66;;;6.84;100.00
27429;BME280;14881;48.092;11.574;2022-11-20T09:31:38;94955.25;;;6.99;100.00
27429;BME280;14881;48.092;11.574;2022-11-20T09:34:06;94954.69;;;7.02;100.00
27429;BME280;14881;48.092;11.574;2022-11-20T09:36:34;94948.19;;;7.03;100.00
27429;BME280;14881;48.092;11.574;2022-11-20T09:39:03;94950.28;;;7.11;100.00
27429;BME280;14881;48.092;11.574;2022-11-20T09:41:44;94940.56;;;7.10;100.00
27429;BME280;14881;48.092;11.574;2022-11-20T09:44:28;94937.88;;;7.10;100.00
27429;BME280;14881;48.092;11.574;2022-11-20T09:47:02;94946.69;;;6.87;100.00
27429;BME280;14881;48.092;11.574;2022-11-20T09:49:41;94945.19;;;7.10;100.00
27429;BME280;14881;48.092;11.574;2022-11-20T09:52:19;94930.66;;;7.34;100.00
27429;BME280;14881;48.092;11.574;2022-11-20T09:54:51;94936.31;;;7.38;100.00
27429;BME280;14881;48.092;11.574;2022-11-20T09:57:23;94924.31;;;7.49;100.00
27429;BME280;14881;48.092;11.574;2022-11-20T09:59:56;94918.66;;;7.75;100.00
27429;BME280;14881;48.092;11.574;2022-11-20T10:02:29;94911.25;;;7.61;100.00
27429;BME280;14881;48.092;11.574;2022-11-20T10:05:04;94915.72;;;8.19;100.00
27429;BME280;14881;48.092;11.574;2022-11-20T10:07:38;94918.66;;;9.21;100.00
27429;BME280;14881;48.092;11.574;2022-11-20T10:10:15;94906.09;;;9.44;100.00
27429;BME280;14881;48.092;11.574;2022-11-20T10:12:56;94903.19;;;10.00;100.00
27429;BME280;14881;48.092;11.574;2022-11-20T10:15:33;94907.44;;;9.60;100.00
27429;BME280;14881;48.092;11.574;2022-11-20T10:18:16;94915.41;;;8.87;100.00
27429;BME280;14881;48.092;11.574;2022-11-20T10:20:53;94904.84;;;8.85;100.00
27429;BME280;14881;48.092;11.574;2022-11-20T10:23:41;94912.47;;;8.46;100.00
27429;BME280;14881;48.092;11.574;2022-11-20T10:26:22;94917.50;;;8.52;100.00
27429;BME280;14881;48.092;11.574;2022-11-20T10:29:04;94906.22;;;9.53;100.00
27429;BME280;14881;48.092;11.574;2022-11-20T10:31:37;94903.22;;;9.54;100.00
27429;BME280;14881;48.092;11.574;2022-11-20T10:34:13;94909.28;;;9.65;100.00
27429;BME280;14881;48.092;11.574;2022-11-20T10:36:54;94906.00;;;9.95;100.00
27429;BME280;14881;48.092;11.574;2022-11-20T10:39:29;94908.72;;;9.82;100.00
27429;BME280;14881;48.092;11.574;2022-11-20T10:42:02;94909.47;;;9.36;100.00
27429;BME280;14881;48.092;11.574;2022-11-20T10:44:32;94923.81;;;9.23;100.00
27429;BME280;14881;48.092;11.574;2022-11-20T10:47:22;94914.16;;;9.17;100.00
27429;BME280;14881;48.092;11.574;2022-11-20T10:49:52;94924.25;;;9.11;100.00
27429;BME280;14881;48.092;11.574;2022-11-20T10:52:26;94909.06;;;8.78;100.00
27429;BME280;14881;48.092;11.574;2022-11-20T10:54:59;94915.63;;;8.90;100.00
27429;BME280;14881;48.092;11.574;2022-11-20T10:57:47;94906.75;;;8.66;100.00
27429;BME280;14881;48.092;11.574;2022-11-20T11:00:19;94918.59;;;8.51;100.00
27429;BME280;14881;48.092;11.574;2022-11-20T11:02:48;94918.22;;;8.39;100.00
27429;BME280;14881;48.092;11.574;2022-11-20T11:05:33;94918.91;;;8.26;100.00
27429;BME280;14881;48.092;11.574;2022-11-20T11:08:04;94906.41;;;8.30;100.00
27429;BME280;14881;48.092;11.574;2022-11-20T11:10:39;94907.22;;;8.07;100.00
27429;BME280;14881;48.092;11.574;2022-11-20T11:13:20;94904.13;;;7.94;100.00
27429;BME280;14881;48.092;11.574;2022-11-20T11:15:48;94903.84;;;7.96;100.00
27429;BME280;14881;48.092;11.574;2022-11-20T11:18:24;94910.63;;;7.93;100.00
27429;BME280;14881;48.092;11.574;2022-11-20T11:20:53;94905.00;;;7.90;100.00
27429;BME280;14881;48.092;11.574;2022-11-20T11:23:40;94900.81;;;7.97;100.00
27429;BME280;14881;48.092;11.574;2022-11-20T11:26:19;94894.41;;;7.93;100.00
27429;BME280;14881;48.092;11.574;2022-11-20T11:28:55;94896.97;;;8.03;100.00
27429;BME280;14881;48.092;11.574;2022-11-20T11:31:24;94887.78;;;8.04;100.00
27429;BME280;14881;48.092;11.574;2022-11-20T11:34:03;94886.50;;;7.97;100.00
27429;BME280;14881;48.092;11.574;2022-11-20T11:36:31;94886.56;;;7.92;100.00
27429;BME280;14881;48.092;11.574;2022-11-20T11:39:01;94892.00;;;7.92;100.00
27429;BME280;14881;48.092;11.574;2022-11-20T11:41:33;94892.31;;;7.85;100.00
27429;BME280;14881;48.092;11.574;2022-11-20T11:44:17;94884.84;;;8.01;100.00
27429;BME280;14881;48.092;11.574;2022-11-20T11:47:05;94871.75;;;8.32;100.00
27429;BME280;14881;48.092;11.574;2022-11-20T11:49:36;94880.16;;;8.30;100.00
27429;BME280;14881;48.092;11.574;2022-11-20T11:52:09;94876.06;;;8.33;100.00
27429;BME280;14881;48.092;11.574;2022-11-20T11:54:43;94873.97;;;8.67;100.00
27429;BME280;14881;48.092;11.574;2022-11-20T11:57:17;94871.25;;;8.86;100.00
27429;BME280;14881;48.092;11.574;2022-11-20T11:59:59;94867.72;;;9.04;100.00
27429;BME280;14881;48.092;11.574;2022-11-20T12:02:36;94861.13;;;9.43;100.00
27429;BME280;14881;48.092;11.574;2022-11-20T12:05:14;94867.38;;;9.71;100.00
27429;BME280;14881;48.092;11.574;2022-11-20T12:07:46;94877.00;;;9.50;100.00
27429;BME280;14881;48.092;11.574;2022-11-20T12:10:21;94873.91;;;9.24;100.00
27429;BME280;14881;48.092;11.574;2022-11-20T12:12:55;94872.84;;;9.06;100.00
27429;BME280;14881;48.092;11.574;2022-11-20T12:15:33;94882.84;;;8.73;100.00
27429;BME280;14881;48.092;11.574;2022-11-20T12:18:01;94884.38;;;8.42;100.00
27429;BME280;14881;48.092;11.574;2022-11-20T12:20:33;94886.09;;;8.09;100.00
27429;BME280;14881;48.092;11.574;2022-11-20T12:23:07;94887.81;;;7.52;100.00
27429;BME280;14881;48.092;11.574;2022-11-20T12:25:39;94894.34;;;7.17;100.00
27429;BME280;14881;48.092;11.574;2022-11-20T12:28:33;94892.13;;;6.90;100.00
27429;BME280;14881;48.092;11.574;2022-11-20T12:31:17;94892.16;;;6.85;100.00
27429;BME280;14881;48.092;11.574;2022-11-20T12:33:58;94891.13;;;6.76;100.00
27429;BME280;14881;48.092;11.574;2022-11-20T12:36:40;94888.50;;;6.66;100.00
27429;BME280;14881;48.092;11.574;2022-11-20T12:39:24;94892.84;;;6.61;100.00
27429;BME280;14881;48.092;11.574;2022-11-20T12:42:19;94898.34;;;6.46;100.00
27429;BME280;14881;48.092;11.574;2022-11-20T12:45:19;94892.97;;;6.41;100.00
27429;BME280;14881;48.092;11.574;2022-11-20T12:48:02;94892.47;;;6.39;100.00
27429;BME280;14881;48.092;11.574;2022-11-20T12:50:43;94899.25;;;6.32;100.00
27429;BME280;14881;48.092;11.574;2022-11-20T12:53:41;94886.84;;;6.31;100.00
27429;BME280;14881;48.092;11.574;2022-11-20T12:56:20;94888.72;;;6.35;100.00
27429;BME280;14881;48.092;11.574;2022-11-20T12:58:59;94891.13;;;6.37;100.00
27429;BME280;14881;48.092;11.574;2022-11-20T13:01:37;94897.06;;;6.39;100.00
27429;BME280;14881;48.092;11.574;2022-11-20T13:04:18;94883.59;;;6.34;100.00
27429;BME280;14881;48.092;11.574;2022-11-20T13:06:51;94883.59;;;6.34;100.00
27429;BME280;14881;48.092;11.574;2022-11-20T13:09:20;94884.06;;;6.41;100.00
27429;BME280;14881;48.092;11.574;2022-11-20T13:11:55;94888.19;;;6.33;100.00